Time;durP1;ratioP1;P1;durP2;ratioP2;P2;SDS_P1;SDS_P2;PMS_P1;PMS_P2;Temp;Humidity;BMP_temperature;BMP_pressure;BME280_temperature;BME280_humidity;BME280_pressure;Samples;Min_cycle;Max_cycle;Signal;HPM_P1;HPM_P2
2021/11/23 00:00:06;;;;;;;37.30;15.38;;;;;;;;;;5020769;28;20033;-60
2021/11/23 00:02:32;;;;;;;41.80;16.00;;;;;;;;;;5018889;28;20115;-60
2021/11/23 00:04:57;;;;;;;43.85;17.58;;;;;;;;;;5021150;28;20531;-61
2021/11/23 00:07:23;;;;;;;33.67;14.65;;;;;;;;;;5023069;28;20037;-60
2021/11/23 00:09:48;;;;;;;42.40;17.02;;;;;;;;;;5017157;28;20037;-60
2021/11/23 00:12:15;;;;;;;39.42;15.75;;;;;;;;;;5019608;28;20038;-60
2021/11/23 00:14:40;;;;;;;40.65;15.38;;;;;;;;;;5023471;28;20033;-60
2021/11/23 00:17:06;;;;;;;35.28;15.82;;;;;;;;;;5022529;28;20044;-60
2021/11/23 00:19:31;;;;;;;42.50;15.82;;;;;;;;;;5024811;28;20029;-60
2021/11/23 00:21:57;;;;;;;34.88;14.73;;;;;;;;;;5021084;28;20455;-59
2021/11/23 00:24:22;;;;;;;40.90;15.60;;;;;;;;;;5017980;28;20038;-59
2021/11/23 00:26:48;;;;;;;46.92;15.25;;;;;;;;;;5025352;28;20030;-59
2021/11/23 00:29:13;;;;;;;42.40;14.32;;;;;;;;;;5017975;28;20033;-58
2021/11/23 00:31:39;;;;;;;36.80;14.13;;;;;;;;;;5014535;28;20308;-60
2021/11/23 00:34:04;;;;;;;46.08;13.68;;;;;;;;;;5018438;28;20033;-58
2021/11/23 00:36:30;;;;;;;50.38;15.30;;;;;;;;;;5016849;28;20034;-60
2021/11/23 00:38:56;;;;;;;37.25;13.60;;;;;;;;;;5021845;28;20061;-60
2021/11/23 00:41:23;;;;;;;30.27;12.63;;;;;;;;;;5016387;28;20038;-60
2021/11/23 00:43:48;;;;;;;34.03;12.70;;;;;;;;;;5024988;28;20428;-60
2021/11/23 00:46:14;;;;;;;37.47;13.50;;;;;;;;;;5020858;28;20034;-60
2021/11/23 00:48:40;;;;;;;37.95;13.45;;;;;;;;;;5017663;28;20060;-60
2021/11/23 00:51:06;;;;;;;41.85;13.93;;;;;;;;;;5014603;28;20038;-60
2021/11/23 00:53:33;;;;;;;38.38;13.98;;;;;;;;;;5022200;28;20017;-60
2021/11/23 00:56:00;;;;;;;36.83;11.88;;;;;;;;;;5016843;28;20033;-60
2021/11/23 00:58:26;;;;;;;34.30;13.38;;;;;;;;;;5020179;28;20238;-60
2021/11/23 01:00:51;;;;;;;33.47;11.15;;;;;;;;;;5024438;28;20065;-60
2021/11/23 01:03:18;;;;;;;24.90;10.82;;;;;;;;;;5021627;28;20095;-60
2021/11/23 01:05:47;;;;;;;28.50;11.57;;;;;;;;;;5019740;28;20060;-60
2021/11/23 01:08:16;;;;;;;32.97;11.10;;;;;;;;;;5022524;28;20029;-60
2021/11/23 01:10:43;;;;;;;29.65;10.88;;;;;;;;;;5024751;28;20092;-60
2021/11/23 01:13:08;;;;;;;34.15;11.63;;;;;;;;;;5017952;28;20551;-60
2021/11/23 01:15:34;;;;;;;24.15;10.55;;;;;;;;;;5018848;28;20040;-60
2021/11/23 01:18:00;;;;;;;23.65;10.45;;;;;;;;;;5023446;28;20436;-60
2021/11/23 01:20:26;;;;;;;32.30;11.23;;;;;;;;;;5015042;28;20029;-60
2021/11/23 01:22:53;;;;;;;31.88;12.18;;;;;;;;;;5014518;28;20068;-60
2021/11/23 01:25:19;;;;;;;28.88;11.00;;;;;;;;;;5011687;28;20029;-60
2021/11/23 01:27:45;;;;;;;33.60;10.80;;;;;;;;;;5022368;28;20053;-60
2021/11/23 01:30:12;;;;;;;23.48;9.52;;;;;;;;;;5017866;28;20072;-60
2021/11/23 01:32:40;;;;;;;26.80;9.95;;;;;;;;;;5018131;28;20256;-60
2021/11/23 01:35:07;;;;;;;24.75;9.13;;;;;;;;;;5020351;28;20064;-60
2021/11/23 01:37:33;;;;;;;22.83;10.05;;;;;;;;;;5021181;28;20484;-58
2021/11/23 01:39:59;;;;;;;20.50;9.25;;;;;;;;;;5019787;28;20095;-60
2021/11/23 01:42:24;;;;;;;24.27;9.85;;;;;;;;;;5015892;28;20030;-60
2021/11/23 01:44:50;;;;;;;29.77;9.77;;;;;;;;;;5020131;28;20428;-60
2021/11/23 01:47:15;;;;;;;24.30;9.80;;;;;;;;;;5017423;28;20140;-60
2021/11/23 01:49:41;;;;;;;29.95;10.10;;;;;;;;;;5022447;28;20112;-60
2021/11/23 01:52:07;;;;;;;36.63;10.05;;;;;;;;;;5016547;28;20026;-60
2021/11/23 01:54:33;;;;;;;31.38;10.80;;;;;;;;;;5021116;28;20512;-60
2021/11/23 01:56:59;;;;;;;26.55;9.27;;;;;;;;;;5016699;28;20037;-60
2021/11/23 01:59:24;;;;;;;27.30;10.15;;;;;;;;;;5012870;28;20018;-60
2021/11/23 02:01:50;;;;;;;27.13;10.07;;;;;;;;;;5017444;28;20072;-60
2021/11/23 02:04:15;;;;;;;31.90;10.77;;;;;;;;;;5018757;28;20043;-60
2021/11/23 02:06:41;;;;;;;39.67;11.25;;;;;;;;;;5017157;28;20022;-60
2021/11/23 02:09:07;;;;;;;32.45;9.57;;;;;;;;;;5016847;28;20032;-60
2021/11/23 02:11:32;;;;;;;24.92;9.75;;;;;;;;;;5018607;28;20033;-60
2021/11/23 02:13:59;;;;;;;25.25;10.05;;;;;;;;;;5018478;28;20484;-58
2021/11/23 02:16:24;;;;;;;29.73;10.68;;;;;;;;;;5014882;28;20488;-58
2021/11/23 02:18:51;;;;;;;27.02;9.85;;;;;;;;;;5009977;28;20033;-59
2021/11/23 02:21:17;;;;;;;29.25;10.55;;;;;;;;;;5017693;28;20048;-59
2021/11/23 02:23:43;;;;;;;29.10;10.18;;;;;;;;;;5020813;28;20030;-59
2021/11/23 02:26:08;;;;;;;33.63;10.90;;;;;;;;;;5018561;28;20226;-59
2021/11/23 02:28:34;;;;;;;25.33;9.57;;;;;;;;;;5020976;28;20026;-58
2021/11/23 02:31:01;;;;;;;33.55;10.45;;;;;;;;;;5004888;28;20042;-61
2021/11/23 02:33:28;;;;;;;25.63;9.52;;;;;;;;;;5045776;28;20496;-59
2021/11/23 02:35:58;;;;;;;25.48;10.40;;;;;;;;;;5021579;28;20034;-58
2021/11/23 02:38:25;;;;;;;25.73;9.73;;;;;;;;;;5022100;28;20685;-58
2021/11/23 02:40:51;;;;;;;23.48;9.85;;;;;;;;;;5020924;28;20037;-58
2021/11/23 02:43:17;;;;;;;21.73;9.88;;;;;;;;;;5021843;28;20033;-58
2021/11/23 02:45:44;;;;;;;26.95;9.80;;;;;;;;;;5023270;28;20034;-59
2021/11/23 02:48:11;;;;;;;23.33;10.20;;;;;;;;;;5018909;28;20520;-59
2021/11/23 02:50:39;;;;;;;30.70;9.60;;;;;;;;;;5021015;28;20029;-58
2021/11/23 02:53:05;;;;;;;18.83;8.73;;;;;;;;;;5017637;28;20500;-59
2021/11/23 02:55:33;;;;;;;28.73;9.48;;;;;;;;;;5020127;28;20075;-59
2021/11/23 02:58:00;;;;;;;28.30;10.23;;;;;;;;;;5017818;28;20026;-59
2021/11/23 03:00:27;;;;;;;32.70;10.65;;;;;;;;;;5021603;28;20044;-59
2021/11/23 03:02:53;;;;;;;29.13;9.82;;;;;;;;;;5023333;28;20026;-59
2021/11/23 03:05:21;;;;;;;31.10;11.38;;;;;;;;;;5020463;28;20583;-59
2021/11/23 03:07:48;;;;;;;36.67;11.90;;;;;;;;;;5024952;28;20411;-59
2021/11/23 03:10:14;;;;;;;29.63;12.77;;;;;;;;;;5019239;28;20037;-59
2021/11/23 03:12:40;;;;;;;26.55;11.63;;;;;;;;;;5022803;28;20087;-59
2021/11/23 03:15:08;;;;;;;29.83;12.93;;;;;;;;;;5004143;28;20038;-59
2021/11/23 03:17:35;;;;;;;30.00;11.80;;;;;;;;;;5018289;28;20037;-59
2021/11/23 03:20:00;;;;;;;28.45;12.43;;;;;;;;;;5019599;28;20049;-59
2021/11/23 03:22:26;;;;;;;32.90;13.73;;;;;;;;;;5016745;28;20088;-59
2021/11/23 03:24:52;;;;;;;38.15;14.02;;;;;;;;;;5021024;28;20795;-59
2021/11/23 03:27:18;;;;;;;28.05;12.10;;;;;;;;;;5020152;28;20044;-59
2021/11/23 03:29:43;;;;;;;34.38;13.77;;;;;;;;;;5019447;28;20037;-59
2021/11/23 03:32:10;;;;;;;25.52;13.00;;;;;;;;;;5021016;28;20056;-59
2021/11/23 03:34:38;;;;;;;29.15;12.07;;;;;;;;;;5022539;28;20117;-58
2021/11/23 03:37:16;;;;;;;29.00;11.45;;;;;;;;;;5035727;28;20033;-59
2021/11/23 03:39:42;;;;;;;28.15;11.00;;;;;;;;;;5017487;28;20033;-58
2021/11/23 03:42:09;;;;;;;30.83;11.18;;;;;;;;;;5023053;28;20041;-59
2021/11/23 03:44:36;;;;;;;24.17;11.15;;;;;;;;;;5024559;28;20037;-59
2021/11/23 03:47:04;;;;;;;25.27;10.77;;;;;;;;;;5014387;28;20029;-58
2021/11/23 03:49:30;;;;;;;35.85;12.80;;;;;;;;;;5021912;28;20030;-59
2021/11/23 03:51:55;;;;;;;31.58;13.18;;;;;;;;;;5022638;28;20396;-59
2021/11/23 03:54:24;;;;;;;38.03;13.10;;;;;;;;;;5043589;28;20034;-59
2021/11/23 03:56:51;;;;;;;25.00;11.55;;;;;;;;;;5019262;28;20496;-59
2021/11/23 03:59:17;;;;;;;28.27;11.75;;;;;;;;;;5020437;28;20037;-59
2021/11/23 04:01:43;;;;;;;23.08;11.15;;;;;;;;;;5021391;28;20043;-59
2021/11/23 04:04:09;;;;;;;27.33;11.05;;;;;;;;;;5020719;28;20049;-59
2021/11/23 04:06:34;;;;;;;29.27;10.48;;;;;;;;;;5015431;28;20029;-60
2021/11/23 04:09:00;;;;;;;18.10;9.13;;;;;;;;;;5016538;28;20021;-59
2021/11/23 04:11:26;;;;;;;27.17;9.07;;;;;;;;;;5019647;28;20377;-59
2021/11/23 04:13:51;;;;;;;22.70;9.63;;;;;;;;;;5016587;28;20033;-59
2021/11/23 04:16:17;;;;;;;25.42;9.35;;;;;;;;;;5020518;28;20099;-59
2021/11/23 04:18:46;;;;;;;22.05;8.73;;;;;;;;;;5016563;28;20124;-59
2021/11/23 04:21:12;;;;;;;31.08;9.18;;;;;;;;;;5016823;28;20038;-59
2021/11/23 04:23:37;;;;;;;25.50;8.07;;;;;;;;;;5019785;28;20327;-59
2021/11/23 04:26:04;;;;;;;15.20;7.35;;;;;;;;;;5019265;28;20464;-58
2021/11/23 04:28:29;;;;;;;26.35;9.02;;;;;;;;;;5025025;28;20494;-58
2021/11/23 04:30:55;;;;;;;21.95;7.78;;;;;;;;;;5019966;28;20040;-59
2021/11/23 04:33:21;;;;;;;31.33;10.93;;;;;;;;;;5017663;28;20053;-58
2021/11/23 04:35:47;;;;;;;17.88;7.05;;;;;;;;;;5020102;28;20076;-58
2021/11/23 04:38:13;;;;;;;18.92;6.72;;;;;;;;;;5018606;28;20618;-58
2021/11/23 04:40:38;;;;;;;23.15;7.07;;;;;;;;;;5018593;28;20564;-58
2021/11/23 04:43:09;;;;;;;21.27;6.38;;;;;;;;;;5016375;28;20113;-58
2021/11/23 04:45:35;;;;;;;21.73;6.75;;;;;;;;;;5015116;28;20520;-59
2021/11/23 04:48:01;;;;;;;15.05;6.25;;;;;;;;;;5017256;28;20054;-59
2021/11/23 04:50:27;;;;;;;16.75;6.07;;;;;;;;;;5015304;28;20038;-59
2021/11/23 04:52:53;;;;;;;14.63;6.78;;;;;;;;;;5019309;28;20049;-60
2021/11/23 04:55:19;;;;;;;15.20;5.93;;;;;;;;;;5014124;28;21082;-58
2021/11/23 04:57:45;;;;;;;21.40;6.57;;;;;;;;;;5017785;28;20030;-59
2021/11/23 05:00:14;;;;;;;15.75;4.95;;;;;;;;;;5019144;28;20516;-57
2021/11/23 05:02:39;;;;;;;20.85;5.20;;;;;;;;;;5013714;28;20034;-58
2021/11/23 05:05:06;;;;;;;17.73;6.68;;;;;;;;;;5017192;28;20091;-58
2021/11/23 05:07:31;;;;;;;16.98;5.55;;;;;;;;;;5019160;28;20033;-58
2021/11/23 05:09:57;;;;;;;17.35;6.45;;;;;;;;;;5019004;28;20405;-58
2021/11/23 05:12:23;;;;;;;17.67;5.95;;;;;;;;;;5017365;28;20029;-58
2021/11/23 05:14:50;;;;;;;16.98;6.45;;;;;;;;;;5013072;28;20104;-59
2021/11/23 05:17:16;;;;;;;16.45;5.20;;;;;;;;;;5017441;28;20068;-59
2021/11/23 05:19:42;;;;;;;16.13;5.45;;;;;;;;;;5016489;28;20030;-59
2021/11/23 05:22:07;;;;;;;19.98;5.72;;;;;;;;;;5020674;28;20555;-58
2021/11/23 05:24:33;;;;;;;21.42;5.50;;;;;;;;;;5017113;28;20038;-59
2021/11/23 05:27:00;;;;;;;13.75;5.65;;;;;;;;;;5017375;28;20060;-59
2021/11/23 05:29:25;;;;;;;18.80;6.18;;;;;;;;;;5014947;28;20029;-59
2021/11/23 05:31:51;;;;;;;16.60;6.10;;;;;;;;;;5018626;28;20092;-59
2021/11/23 05:34:16;;;;;;;15.57;5.50;;;;;;;;;;5017862;28;20048;-59
2021/11/23 05:36:44;;;;;;;15.25;4.70;;;;;;;;;;5015151;28;20095;-60
2021/11/23 05:39:10;;;;;;;15.45;5.07;;;;;;;;;;5013372;28;20044;-59
2021/11/23 05:41:36;;;;;;;19.00;4.88;;;;;;;;;;5013116;28;20021;-59
2021/11/23 05:44:02;;;;;;;9.55;4.95;;;;;;;;;;5018644;28;20021;-58
2021/11/23 05:46:28;;;;;;;15.25;5.20;;;;;;;;;;5013152;28;20035;-58
2021/11/23 05:48:53;;;;;;;16.55;6.18;;;;;;;;;;5018426;28;20049;-58
2021/11/23 05:51:20;;;;;;;17.70;5.30;;;;;;;;;;5020670;28;20033;-59
2021/11/23 05:53:46;;;;;;;11.32;4.00;;;;;;;;;;5017476;28;20446;-59
2021/11/23 05:56:11;;;;;;;16.83;4.90;;;;;;;;;;5020508;28;20041;-59
2021/11/23 05:58:37;;;;;;;15.45;4.85;;;;;;;;;;5016114;28;20034;-60
2021/11/23 06:01:03;;;;;;;14.80;5.88;;;;;;;;;;5015777;28;20484;-59
2021/11/23 06:03:29;;;;;;;10.50;4.63;;;;;;;;;;5019106;28;20031;-59
2021/11/23 06:05:55;;;;;;;16.75;5.75;;;;;;;;;;5013073;28;20076;-59
2021/11/23 06:08:20;;;;;;;17.85;5.18;;;;;;;;;;5015718;28;20037;-59
2021/11/23 06:10:46;;;;;;;17.42;5.45;;;;;;;;;;5021245;28;20043;-59
2021/11/23 06:13:12;;;;;;;10.55;5.35;;;;;;;;;;5017715;28;20033;-60
2021/11/23 06:15:40;;;;;;;13.15;5.47;;;;;;;;;;5017576;28;20075;-59
2021/11/23 06:18:07;;;;;;;17.85;6.05;;;;;;;;;;5014455;28;20115;-59
2021/11/23 06:20:33;;;;;;;26.77;6.65;;;;;;;;;;5015415;28;20033;-59
2021/11/23 06:23:01;;;;;;;24.67;6.75;;;;;;;;;;5019594;28;20026;-59
2021/11/23 06:25:27;;;;;;;20.90;7.28;;;;;;;;;;5015038;28;20087;-59
2021/11/23 06:27:53;;;;;;;16.80;5.70;;;;;;;;;;5019085;28;20525;-59
2021/11/23 06:30:20;;;;;;;24.95;6.50;;;;;;;;;;5017061;28;20128;-59
2021/11/23 06:32:46;;;;;;;14.88;6.63;;;;;;;;;;5016106;28;20355;-59
2021/11/23 06:35:12;;;;;;;19.02;7.57;;;;;;;;;;5017038;28;20503;-59
2021/11/23 06:37:38;;;;;;;20.35;7.18;;;;;;;;;;5014308;28;20033;-59
2021/11/23 06:40:06;;;;;;;17.88;7.00;;;;;;;;;;5016390;28;20103;-59
2021/11/23 06:42:32;;;;;;;23.52;8.57;;;;;;;;;;5020669;28;20087;-59
2021/11/23 06:44:58;;;;;;;23.83;8.45;;;;;;;;;;5012346;28;20328;-60
2021/11/23 06:47:23;;;;;;;15.20;6.38;;;;;;;;;;5012556;28;20622;-60
2021/11/23 06:49:51;;;;;;;33.22;7.03;;;;;;;;;;4999516;28;20045;-60
2021/11/23 06:52:18;;;;;;;27.90;7.05;;;;;;;;;;5016257;28;20037;-59
2021/11/23 06:54:44;;;;;;;15.15;7.68;;;;;;;;;;5020198;28;20025;-60
2021/11/23 06:57:10;;;;;;;16.40;6.32;;;;;;;;;;5016475;28;20381;-59
2021/11/23 06:59:35;;;;;;;15.55;6.85;;;;;;;;;;5021109;28;20033;-59
2021/11/23 07:02:01;;;;;;;15.73;6.63;;;;;;;;;;5015619;28;20030;-59
2021/11/23 07:04:27;;;;;;;19.33;7.10;;;;;;;;;;5014579;28;20049;-59
2021/11/23 07:06:52;;;;;;;21.40;8.45;;;;;;;;;;5016072;28;20138;-59
2021/11/23 07:09:18;;;;;;;19.67;7.50;;;;;;;;;;5013780;28;20037;-59
2021/11/23 07:11:43;;;;;;;20.52;7.78;;;;;;;;;;5017606;28;20037;-59
2021/11/23 07:14:11;;;;;;;20.70;7.95;;;;;;;;;;5014989;28;20045;-60
2021/11/23 07:16:38;;;;;;;22.52;8.75;;;;;;;;;;5016708;28;20088;-60
2021/11/23 07:19:03;;;;;;;22.88;9.43;;;;;;;;;;5018961;28;20021;-60
2021/11/23 07:21:29;;;;;;;21.85;8.68;;;;;;;;;;5019612;28;20383;-60
2021/11/23 07:23:54;;;;;;;22.75;8.07;;;;;;;;;;5023499;28;20045;-60
2021/11/23 07:26:20;;;;;;;22.77;8.68;;;;;;;;;;5015217;28;20041;-60
2021/11/23 07:28:46;;;;;;;21.90;8.88;;;;;;;;;;5020768;28;20400;-60
2021/11/23 07:31:11;;;;;;;28.83;9.98;;;;;;;;;;5016958;28;20038;-60
2021/11/23 07:33:38;;;;;;;24.45;9.90;;;;;;;;;;5026930;28;21535;-60
2021/11/23 07:36:04;;;;;;;21.33;8.65;;;;;;;;;;5022934;28;20033;-59
2021/11/23 07:38:29;;;;;;;22.83;10.52;;;;;;;;;;5023842;28;20204;-60
2021/11/23 07:40:55;;;;;;;25.77;9.65;;;;;;;;;;5024168;28;20135;-60
2021/11/23 07:43:21;;;;;;;33.45;10.25;;;;;;;;;;5022421;28;20488;-60
2021/11/23 07:45:46;;;;;;;28.50;9.52;;;;;;;;;;5024196;28;20029;-59
2021/11/23 07:48:12;;;;;;;30.58;9.98;;;;;;;;;;5021468;28;20050;-59
2021/11/23 07:50:40;;;;;;;32.17;9.32;;;;;;;;;;5027146;28;20075;-59
2021/11/23 07:53:07;;;;;;;27.98;9.00;;;;;;;;;;5018850;28;20029;-59
2021/11/23 07:55:32;;;;;;;26.05;8.82;;;;;;;;;;5014921;28;20042;-59
2021/11/23 07:57:58;;;;;;;19.20;8.60;;;;;;;;;;5016871;28;20047;-59
2021/11/23 08:00:25;;;;;;;16.45;7.97;;;;;;;;;;5022895;28;20044;-61
2021/11/23 08:02:51;;;;;;;20.58;7.78;;;;;;;;;;5023545;28;20036;-58
2021/11/23 08:05:17;;;;;;;24.38;7.90;;;;;;;;;;5028240;28;20026;-59
2021/11/23 08:07:42;;;;;;;15.38;7.65;;;;;;;;;;5014829;28;20120;-59
2021/11/23 08:10:08;;;;;;;24.42;8.90;;;;;;;;;;5020213;28;20363;-58
2021/11/23 08:12:34;;;;;;;16.70;7.50;;;;;;;;;;5020223;28;20846;-59
2021/11/23 08:15:00;;;;;;;19.55;6.97;;;;;;;;;;5017706;28;20030;-59
2021/11/23 08:17:25;;;;;;;19.83;6.88;;;;;;;;;;5011973;28;20120;-59
2021/11/23 08:19:51;;;;;;;16.08;6.50;;;;;;;;;;5012595;28;20198;-58
2021/11/23 08:22:17;;;;;;;15.75;6.68;;;;;;;;;;5013814;28;20030;-59
2021/11/23 08:24:43;;;;;;;18.25;6.68;;;;;;;;;;5018904;28;20128;-59
2021/11/23 08:27:09;;;;;;;21.27;7.85;;;;;;;;;;5019925;28;20058;-59
2021/11/23 08:29:35;;;;;;;25.33;7.00;;;;;;;;;;5018694;28;20056;-58
2021/11/23 08:32:01;;;;;;;21.45;8.23;;;;;;;;;;5023549;28;20079;-59
2021/11/23 08:34:28;;;;;;;21.65;8.95;;;;;;;;;;5016766;28;20072;-59
2021/11/23 08:36:54;;;;;;;23.92;8.85;;;;;;;;;;5014468;28;20466;-59
2021/11/23 08:39:19;;;;;;;24.38;8.65;;;;;;;;;;5015259;28;20117;-59
2021/11/23 08:41:46;;;;;;;23.25;8.25;;;;;;;;;;5019681;28;20456;-59
2021/11/23 08:44:12;;;;;;;20.83;8.00;;;;;;;;;;5020729;28;20022;-59
2021/11/23 08:46:38;;;;;;;31.67;6.65;;;;;;;;;;5017211;28;20034;-59
2021/11/23 08:49:04;;;;;;;22.25;5.78;;;;;;;;;;5022818;28;20496;-59
2021/11/23 08:51:33;;;;;;;18.52;7.28;;;;;;;;;;5019229;28;20262;-59
2021/11/23 08:54:00;;;;;;;20.38;7.60;;;;;;;;;;5022149;28;20042;-59
2021/11/23 08:56:31;;;;;;;20.13;7.15;;;;;;;;;;5023170;28;20039;-59
2021/11/23 08:58:57;;;;;;;20.70;7.72;;;;;;;;;;5016691;28;20025;-60
2021/11/23 09:01:25;;;;;;;16.92;7.15;;;;;;;;;;5023601;28;20411;-59
2021/11/23 09:03:53;;;;;;;23.15;7.60;;;;;;;;;;5016210;28;20064;-58
2021/11/23 09:06:19;;;;;;;26.35;7.47;;;;;;;;;;5016838;28;20030;-59
2021/11/23 09:08:58;;;;;;;21.52;7.07;;;;;;;;;;5014533;28;20469;-59
2021/11/23 09:11:25;;;;;;;24.17;7.30;;;;;;;;;;5012380;28;20038;-59
2021/11/23 09:13:53;;;;;;;24.63;7.97;;;;;;;;;;5017252;28;20038;-59
2021/11/23 09:16:19;;;;;;;18.42;8.02;;;;;;;;;;5010461;28;20030;-59
2021/11/23 09:18:44;;;;;;;13.55;6.20;;;;;;;;;;5022004;28;20112;-59
2021/11/23 09:21:10;;;;;;;21.13;6.35;;;;;;;;;;5020756;28;20028;-58
2021/11/23 09:23:36;;;;;;;17.67;7.18;;;;;;;;;;5020529;28;20080;-59
2021/11/23 09:26:02;;;;;;;17.92;6.72;;;;;;;;;;5018227;28;20037;-59
2021/11/23 09:28:27;;;;;;;18.92;7.03;;;;;;;;;;5018600;28;20034;-59
2021/11/23 09:30:53;;;;;;;24.40;6.90;;;;;;;;;;5016814;28;20034;-59
2021/11/23 09:33:18;;;;;;;16.08;6.57;;;;;;;;;;5015176;28;20041;-59
2021/11/23 09:35:44;;;;;;;20.25;6.32;;;;;;;;;;5014638;28;20116;-59
2021/11/23 09:38:09;;;;;;;31.80;6.75;;;;;;;;;;5014582;28;20091;-59
2021/11/23 09:40:35;;;;;;;17.48;6.65;;;;;;;;;;5015791;28;20033;-60
2021/11/23 09:43:03;;;;;;;20.38;6.95;;;;;;;;;;5018721;28;20021;-59
2021/11/23 09:45:29;;;;;;;22.20;7.57;;;;;;;;;;5016000;28;20021;-59
2021/11/23 09:47:55;;;;;;;20.42;6.30;;;;;;;;;;5025438;28;20475;-59
2021/11/23 09:50:20;;;;;;;21.75;7.78;;;;;;;;;;5016168;28;20100;-60
2021/11/23 09:52:46;;;;;;;21.98;6.47;;;;;;;;;;5017833;28;20087;-59
2021/11/23 09:55:14;;;;;;;22.60;7.13;;;;;;;;;;5020906;28;20034;-59
2021/11/23 09:57:41;;;;;;;24.83;6.95;;;;;;;;;;5012183;28;20029;-60
2021/11/23 10:00:23;;;;;;;22.92;6.95;;;;;;;;;;5016728;28;20034;-58
2021/11/23 10:02:48;;;;;;;13.80;5.70;;;;;;;;;;5016422;28;20459;-58
2021/11/23 10:05:15;;;;;;;27.35;6.45;;;;;;;;;;5017474;28;20436;-59
2021/11/23 10:07:45;;;;;;;17.33;6.50;;;;;;;;;;5018517;28;20032;-59
2021/11/23 10:10:21;;;;;;;22.23;6.00;;;;;;;;;;5017375;28;20601;-59
2021/11/23 10:12:58;;;;;;;16.00;6.57;;;;;;;;;;5017415;28;20565;-59
2021/11/23 10:15:30;;;;;;;39.33;6.85;;;;;;;;;;5020370;28;20034;-62
2021/11/23 10:18:11;;;;;;;15.75;6.80;;;;;;;;;;5017227;28;20018;-59
2021/11/23 10:20:57;;;;;;;15.48;6.60;;;;;;;;;;5022014;28;20043;-59
2021/11/23 10:23:30;;;;;;;18.05;6.25;;;;;;;;;;5021600;28;20661;-59
2021/11/23 10:26:04;;;;;;;22.92;6.68;;;;;;;;;;5020606;28;20101;-59
2021/11/23 10:28:31;;;;;;;16.25;6.32;;;;;;;;;;5019226;28;20068;-59
2021/11/23 10:30:59;;;;;;;23.73;6.93;;;;;;;;;;5010336;28;20033;-59
2021/11/23 10:33:24;;;;;;;26.10;6.50;;;;;;;;;;5011402;28;20061;-57
2021/11/23 10:35:55;;;;;;;23.40;8.70;;;;;;;;;;5010079;28;20080;-57
2021/11/23 10:38:21;;;;;;;24.95;8.07;;;;;;;;;;5013384;28;20025;-59
2021/11/23 10:40:49;;;;;;;29.88;8.70;;;;;;;;;;5023358;28;20041;-59
2021/11/23 10:43:18;;;;;;;24.02;7.25;;;;;;;;;;5021010;28;20068;-58
2021/11/23 10:45:55;;;;;;;29.48;8.10;;;;;;;;;;5006546;28;20029;-59
2021/11/23 10:48:25;;;;;;;25.08;7.38;;;;;;;;;;5009188;28;20045;-58
2021/11/23 10:51:08;;;;;;;30.85;9.77;;;;;;;;;;5014800;28;20037;-57
2021/11/23 10:53:35;;;;;;;23.95;8.02;;;;;;;;;;5014307;28;20033;-58
2021/11/23 10:56:09;;;;;;;22.13;7.47;;;;;;;;;;5017158;28;20039;-58
2021/11/23 10:58:34;;;;;;;32.50;9.48;;;;;;;;;;5012829;28;20079;-57
2021/11/23 11:01:01;;;;;;;29.30;8.65;;;;;;;;;;5017055;28;20037;-59
2021/11/23 11:03:31;;;;;;;29.83;9.15;;;;;;;;;;5022189;28;20095;-60
2021/11/23 11:05:59;;;;;;;27.08;8.13;;;;;;;;;;5011105;28;20091;-58
2021/11/23 11:08:27;;;;;;;20.75;7.95;;;;;;;;;;5017355;28;20034;-58
2021/11/23 11:10:54;;;;;;;23.92;8.13;;;;;;;;;;5019459;28;20029;-58
2021/11/23 11:13:22;;;;;;;33.42;9.10;;;;;;;;;;5022751;28;20034;-58
2021/11/23 11:15:57;;;;;;;31.75;8.07;;;;;;;;;;5019204;28;20025;-59
2021/11/23 11:18:23;;;;;;;22.58;7.57;;;;;;;;;;5010570;28;20113;-60
2021/11/23 11:20:50;;;;;;;23.42;7.07;;;;;;;;;;5021908;28;20109;-60
2021/11/23 11:23:23;;;;;;;12.63;5.03;;;;;;;;;;5024213;28;20027;-59
2021/11/23 11:26:25;;;;;;;23.88;7.20;;;;;;;;;;5010990;28;20038;-62
2021/11/23 11:28:54;;;;;;;25.02;8.88;;;;;;;;;;5006340;28;20404;-60
2021/11/23 11:31:42;;;;;;;22.80;7.40;;;;;;;;;;5023770;28;20036;-59
2021/11/23 11:34:35;;;;;;;17.40;6.15;;;;;;;;;;5018794;28;20125;-59
2021/11/23 11:37:10;;;;;;;15.10;5.53;;;;;;;;;;5002940;28;20397;-59
2021/11/23 11:39:35;;;;;;;16.80;5.63;;;;;;;;;;5021450;28;20049;-60
2021/11/23 11:42:02;;;;;;;20.23;5.30;;;;;;;;;;5016292;28;20122;-57
2021/11/23 11:44:48;;;;;;;17.70;6.15;;;;;;;;;;5021617;28;20713;-60
2021/11/23 11:47:18;;;;;;;26.17;6.93;;;;;;;;;;5005385;28;20050;-58
2021/11/23 11:49:50;;;;;;;26.20;6.32;;;;;;;;;;5019220;28;20041;-59
2021/11/23 11:52:17;;;;;;;21.90;5.68;;;;;;;;;;5016840;28;20340;-58
2021/11/23 11:54:45;;;;;;;19.27;6.60;;;;;;;;;;5018341;28;20247;-58
2021/11/23 11:57:27;;;;;;;15.65;6.00;;;;;;;;;;5004142;28;20044;-59
2021/11/23 11:59:53;;;;;;;16.50;6.32;;;;;;;;;;5033882;28;20098;-59
2021/11/23 12:02:22;;;;;;;15.82;6.80;;;;;;;;;;5020141;28;20489;-59
2021/11/23 12:05:00;;;;;;;17.48;6.53;;;;;;;;;;5027342;28;20230;-58
2021/11/23 12:07:47;;;;;;;16.02;5.78;;;;;;;;;;5001220;28;20072;-59
2021/11/23 12:10:17;;;;;;;20.67;6.03;;;;;;;;;;5017716;28;20029;-59
2021/11/23 12:12:51;;;;;;;21.17;6.97;;;;;;;;;;5018591;28;20196;-59
2021/11/23 12:15:36;;;;;;;16.67;6.80;;;;;;;;;;5023257;28;20045;-59
2021/11/23 12:18:34;;;;;;;24.83;5.28;;;;;;;;;;5010726;28;20026;-59
2021/11/23 12:21:07;;;;;;;12.15;5.30;;;;;;;;;;5011493;28;20485;-58
2021/11/23 12:23:38;;;;;;;14.25;5.32;;;;;;;;;;5018788;28;20029;-59
2021/11/23 12:26:10;;;;;;;20.83;5.72;;;;;;;;;;5015830;28;20041;-58
2021/11/23 12:28:36;;;;;;;14.48;4.78;;;;;;;;;;5005395;28;20072;-59
2021/11/23 12:31:08;;;;;;;20.90;4.20;;;;;;;;;;5022538;28;20034;-58
2021/11/23 12:33:43;;;;;;;24.80;4.03;;;;;;;;;;5014501;28;20026;-58
2021/11/23 12:36:14;;;;;;;12.73;4.78;;;;;;;;;;5009638;28;20044;-59
2021/11/23 12:38:40;;;;;;;16.85;4.68;;;;;;;;;;5005767;28;20045;-58
2021/11/23 12:41:25;;;;;;;12.27;3.67;;;;;;;;;;5016275;28;20041;-58
2021/11/23 12:43:53;;;;;;;12.07;4.65;;;;;;;;;;5013294;28;20485;-58
2021/11/23 12:46:22;;;;;;;12.82;4.15;;;;;;;;;;5009502;28;20029;-59
2021/11/23 12:48:50;;;;;;;13.02;4.70;;;;;;;;;;5005464;28;20061;-58
2021/11/23 12:51:26;;;;;;;12.32;4.60;;;;;;;;;;5017264;28;20029;-58
2021/11/23 12:53:59;;;;;;;16.92;4.72;;;;;;;;;;5015094;28;20520;-58
2021/11/23 12:56:50;;;;;;;16.48;5.15;;;;;;;;;;5009792;28;20112;-58
2021/11/23 12:59:37;;;;;;;11.10;4.22;;;;;;;;;;5003169;28;20041;-58
2021/11/23 13:02:22;;;;;;;17.45;3.33;;;;;;;;;;5019407;28;20087;-58
2021/11/23 13:04:48;;;;;;;13.60;4.93;;;;;;;;;;5021261;28;20061;-58
2021/11/23 13:07:14;;;;;;;10.23;4.28;;;;;;;;;;4997455;28;20436;-58
2021/11/23 13:09:44;;;;;;;14.68;5.15;;;;;;;;;;5013120;28;20030;-58
2021/11/23 13:12:10;;;;;;;17.75;5.43;;;;;;;;;;5018485;28;20137;-58
2021/11/23 13:14:51;;;;;;;13.25;5.13;;;;;;;;;;5014627;28;20470;-58
2021/11/23 13:17:17;;;;;;;13.82;4.97;;;;;;;;;;4997339;28;20034;-58
2021/11/23 13:19:52;;;;;;;16.65;5.47;;;;;;;;;;5018380;28;20508;-58
2021/11/23 13:22:18;;;;;;;17.45;6.15;;;;;;;;;;5018095;28;20022;-57
2021/11/23 13:24:44;;;;;;;9.52;4.65;;;;;;;;;;5017784;28;20455;-57
2021/11/23 13:27:09;;;;;;;9.70;4.90;;;;;;;;;;5001915;28;20563;-57
2021/11/23 13:29:36;;;;;;;12.32;4.60;;;;;;;;;;5015119;28;20126;-59
2021/11/23 13:32:02;;;;;;;14.65;5.43;;;;;;;;;;5021265;28;20034;-58
2021/11/23 13:34:27;;;;;;;17.30;4.75;;;;;;;;;;5015025;28;20507;-58
2021/11/23 13:36:55;;;;;;;11.95;5.05;;;;;;;;;;5008961;28;20037;-58
2021/11/23 13:39:25;;;;;;;19.23;5.72;;;;;;;;;;5020608;28;20095;-60
2021/11/23 13:41:53;;;;;;;14.38;5.07;;;;;;;;;;5014345;28;20030;-58
2021/11/23 13:44:25;;;;;;;11.93;4.53;;;;;;;;;;5020926;28;20397;-58
2021/11/23 13:47:02;;;;;;;12.15;4.00;;;;;;;;;;5011323;28;20021;-58
2021/11/23 13:49:29;;;;;;;14.93;5.43;;;;;;;;;;5011730;28;20068;-59
2021/11/23 13:52:19;;;;;;;19.95;5.65;;;;;;;;;;5021774;28;20033;-59
2021/11/23 13:55:18;;;;;;;15.45;6.60;;;;;;;;;;5016842;28;20032;-58
2021/11/23 13:57:48;;;;;;;17.45;4.90;;;;;;;;;;4998863;28;20030;-59
2021/11/23 14:00:30;;;;;;;13.75;4.88;;;;;;;;;;5014692;28;20034;-57
2021/11/23 14:03:13;;;;;;;16.13;6.07;;;;;;;;;;5017413;28;20068;-59
2021/11/23 14:05:47;;;;;;;17.08;5.55;;;;;;;;;;5015544;28;20076;-59
2021/11/23 14:08:14;;;;;;;14.02;5.25;;;;;;;;;;5003430;28;20022;-59
2021/11/23 14:10:42;;;;;;;12.07;4.72;;;;;;;;;;5015819;28;20057;-59
2021/11/23 14:13:17;;;;;;;14.15;5.03;;;;;;;;;;5012746;28;20042;-59
2021/11/23 14:15:51;;;;;;;16.52;4.85;;;;;;;;;;5014482;28;20029;-60
2021/11/23 14:18:17;;;;;;;14.77;5.38;;;;;;;;;;5008876;28;20033;-59
2021/11/23 14:23:15;;;;;;;13.95;5.88;;;;;;;;;;5019685;28;20032;-59
2021/11/23 14:25:43;;;;;;;14.15;5.78;;;;;;;;;;5018733;28;20112;-59
2021/11/23 14:28:10;;;;;;;18.30;5.93;;;;;;;;;;4999751;28;20041;-59
2021/11/23 14:30:37;;;;;;;15.85;5.85;;;;;;;;;;5019848;28;20546;-59
2021/11/23 14:33:03;;;;;;;12.95;5.15;;;;;;;;;;5015206;28;20101;-59